createdAt,value
2018-07-16T08:06:53.953Z,42.20
2018-07-16T08:09:23.179Z,52.40
2018-07-16T08:11:52.437Z,52.00
2018-07-16T08:14:23.397Z,51.50
2018-07-16T08:16:53.227Z,51.10
2018-07-16T08:19:22.746Z,50.80
2018-07-16T08:21:52.201Z,50.50
2018-07-16T08:24:21.606Z,50.40
2018-07-16T08:26:50.138Z,50.20
2018-07-16T08:29:19.285Z,50.00
2018-07-16T08:31:48.248Z,49.90
2018-07-16T08:34:16.883Z,49.90
2018-07-16T08:36:46.308Z,49.80
2018-07-16T08:39:15.039Z,49.80
2018-07-16T08:41:43.967Z,49.80
2018-07-16T08:44:13.618Z,49.80
2018-07-16T08:46:42.344Z,49.90
2018-07-16T08:49:11.602Z,49.60
2018-07-16T08:51:40.592Z,49.60
2018-07-16T08:54:09.875Z,49.40
2018-07-16T08:56:39.958Z,49.40
2018-07-16T08:59:10.402Z,49.20
2018-07-16T09:01:39.638Z,49.30
2018-07-16T09:04:08.557Z,49.20
2018-07-16T09:06:37.413Z,49.20
2018-07-16T09:09:07.346Z,49.20
2018-07-16T09:11:36.256Z,49.10
2018-07-16T09:14:05.714Z,49.10
2018-07-16T09:16:34.466Z,49.10
2018-07-16T09:19:03.965Z,49.10
2018-07-16T09:21:33.821Z,49.00
2018-07-16T09:24:02.632Z,48.90
2018-07-16T09:26:32.077Z,48.90
2018-07-16T09:29:01.196Z,49.10
2018-07-16T09:31:29.875Z,49.00
2018-07-16T09:33:59.116Z,49.00
2018-07-16T09:36:28.472Z,49.10
2018-07-16T09:38:57.809Z,49.10
2018-07-16T09:41:27.278Z,49.40
2018-07-16T09:43:56.397Z,49.20
2018-07-16T09:47:49.751Z,49.10
2018-07-16T09:52:47.477Z,49.00
2018-07-16T09:55:16.399Z,49.10
2018-07-16T09:57:48.073Z,49.10
2018-07-16T10:00:21.493Z,49.10
2018-07-16T10:02:50.969Z,49.20
2018-07-16T10:05:20.244Z,49.20
2018-07-16T10:07:49.475Z,49.10
2018-07-16T10:10:21.685Z,49.20
2018-07-16T10:12:51.101Z,49.20
2018-07-16T10:17:52.565Z,49.30
2018-07-16T10:20:22.611Z,49.30
2018-07-16T10:22:52.217Z,49.40
2018-07-16T10:25:21.529Z,49.40
2018-07-16T10:27:51.590Z,49.30
2018-07-16T10:30:21.020Z,49.20
2018-07-16T10:32:50.438Z,49.30
2018-07-16T10:35:19.750Z,49.30
2018-07-16T10:37:48.751Z,49.40
2018-07-16T10:40:17.700Z,49.50
2018-07-16T10:42:46.824Z,49.60
2018-07-16T10:45:16.056Z,49.60
2018-07-16T10:47:45.644Z,49.60
2018-07-16T10:50:15.098Z,49.60
2018-07-16T10:52:44.685Z,49.60
2018-07-16T10:55:14.542Z,49.60
2018-07-16T10:57:43.466Z,49.60
2018-07-16T11:00:12.776Z,49.80
2018-07-16T11:02:43.210Z,49.90
2018-07-16T11:05:13.856Z,49.90
2018-07-16T11:07:44.537Z,50.00
2018-07-16T11:10:13.862Z,50.00
2018-07-16T11:15:12.855Z,50.00
2018-07-16T11:17:42.217Z,50.10
2018-07-16T11:20:11.605Z,50.20
2018-07-16T11:22:42.761Z,50.10
2018-07-16T11:25:12.615Z,50.20
2018-07-16T11:27:41.875Z,50.30
2018-07-16T11:30:10.524Z,51.00
2018-07-16T11:32:39.443Z,50.40
2018-07-16T11:35:08.708Z,50.50
2018-07-16T11:39:02.410Z,50.60
2018-07-16T11:41:31.782Z,50.70
2018-07-16T11:44:00.688Z,50.70
2018-07-16T11:46:29.909Z,50.90
2018-07-16T11:51:38.014Z,51.00
2018-07-16T11:54:07.307Z,51.20
2018-07-16T11:56:36.305Z,51.10
2018-07-16T11:59:05.330Z,51.30
2018-07-16T12:01:35.372Z,51.30
2018-07-16T12:04:05.668Z,51.90
2018-07-16T12:06:35.371Z,51.30
2018-07-16T12:11:34.053Z,51.40
2018-07-16T12:14:05.852Z,51.40
2018-07-16T12:16:35.366Z,51.40
2018-07-16T12:19:04.877Z,51.40
2018-07-16T12:21:34.141Z,51.40
2018-07-16T12:24:03.819Z,51.50
2018-07-16T12:26:32.681Z,51.60
2018-07-16T12:29:02.355Z,51.60
2018-07-16T12:31:31.600Z,51.60
2018-07-16T12:34:01.042Z,51.60
2018-07-16T12:36:35.257Z,51.70
2018-07-16T12:41:34.175Z,51.80
2018-07-16T12:44:03.393Z,51.80
2018-07-16T12:46:32.821Z,51.80
2018-07-16T12:49:01.758Z,51.80
2018-07-16T12:51:31.205Z,51.80
2018-07-16T12:54:00.243Z,51.80
2018-07-16T12:56:29.232Z,51.90
2018-07-16T12:59:02.127Z,51.90
2018-07-16T13:01:30.992Z,52.00
2018-07-16T13:03:59.941Z,52.00
2018-07-16T13:06:29.326Z,52.10
2018-07-16T13:08:59.829Z,52.30
2018-07-16T13:11:28.397Z,52.30
2018-07-16T13:13:57.604Z,52.20
2018-07-16T13:16:27.381Z,52.30
2018-07-16T13:18:56.754Z,52.30
2018-07-16T13:21:26.188Z,52.40
2018-07-16T13:23:55.108Z,52.40
2018-07-16T13:26:24.550Z,52.40
2018-07-16T13:28:53.366Z,52.40
2018-07-16T13:31:22.263Z,52.60
2018-07-16T13:33:53.331Z,53.00
2018-07-16T13:36:22.649Z,52.80
2018-07-16T13:38:52.003Z,52.60
2018-07-16T13:41:21.376Z,52.60
2018-07-16T13:43:50.890Z,52.50
2018-07-16T13:46:19.888Z,52.80
2018-07-16T13:48:49.087Z,52.30
2018-07-16T13:53:47.167Z,52.10
2018-07-16T13:56:16.231Z,52.00
2018-07-16T13:58:45.585Z,51.90
2018-07-16T14:01:15.271Z,51.90
2018-07-16T14:03:45.590Z,51.90
2018-07-16T14:06:14.747Z,51.90
2018-07-16T14:08:43.495Z,51.80
2018-07-16T14:13:41.420Z,51.90
2018-07-16T14:16:10.461Z,51.80
2018-07-16T14:18:40.691Z,51.70
2018-07-16T14:21:09.595Z,51.50
2018-07-16T14:23:38.355Z,51.50
2018-07-16T14:26:07.454Z,51.30
2018-07-16T14:28:36.593Z,51.20
2018-07-16T14:31:06.142Z,51.10
2018-07-16T14:33:35.294Z,51.00
2018-07-16T14:36:04.372Z,50.90
2018-07-16T14:38:34.200Z,50.80
2018-07-16T14:41:03.873Z,50.70
2018-07-16T14:48:31.471Z,50.60
2018-07-16T14:51:00.569Z,50.60
2018-07-16T14:53:29.560Z,50.50
2018-07-16T14:55:58.537Z,50.50
2018-07-16T14:58:28.191Z,50.50
2018-07-16T15:00:58.172Z,50.40
2018-07-16T15:06:10.199Z,50.90
2018-07-16T15:08:40.373Z,50.20
2018-07-16T15:11:09.202Z,50.00
2018-07-16T15:16:08.148Z,50.00
2018-07-16T15:18:37.372Z,49.70
2018-07-16T15:21:08.018Z,49.60
2018-07-16T15:23:37.439Z,49.50
2018-07-16T15:26:06.800Z,49.50
2018-07-16T15:28:36.105Z,49.60
2018-07-16T15:31:05.742Z,49.80
2018-07-16T15:33:34.941Z,50.30
2018-07-16T15:36:03.770Z,50.10
2018-07-16T15:38:32.816Z,50.30
2018-07-16T15:41:01.491Z,50.40
2018-07-16T15:43:30.688Z,50.50
2018-07-16T15:45:59.567Z,50.60
2018-07-16T15:48:28.573Z,50.70
2018-07-16T15:50:57.328Z,50.70
2018-07-16T15:53:26.548Z,50.70
2018-07-16T15:55:55.848Z,50.70
2018-07-16T15:58:24.553Z,50.80
2018-07-16T16:00:53.461Z,50.80
2018-07-16T16:03:22.510Z,50.80
2018-07-16T16:05:51.835Z,50.80
2018-07-16T16:08:21.418Z,50.70
2018-07-16T16:10:50.201Z,50.60
2018-07-16T16:13:19.502Z,50.50
2018-07-16T16:15:48.519Z,50.50
2018-07-16T16:18:17.928Z,50.50
2018-07-16T16:20:49.498Z,50.40
2018-07-16T16:23:19.418Z,50.30
2018-07-16T16:25:48.210Z,50.30
2018-07-16T16:28:18.283Z,50.50
2018-07-16T16:30:47.432Z,51.10
2018-07-16T16:33:16.365Z,51.40
2018-07-16T16:35:45.537Z,52.40
2018-07-16T16:38:14.612Z,52.00
2018-07-16T16:40:43.351Z,52.50
2018-07-16T16:43:12.791Z,52.70
2018-07-16T16:45:41.571Z,52.80
2018-07-16T16:48:10.572Z,52.90
2018-07-16T16:50:39.393Z,52.90
2018-07-16T16:55:37.757Z,52.80
2018-07-16T16:58:09.556Z,52.70
2018-07-16T17:00:38.621Z,52.60
2018-07-16T17:03:07.812Z,52.60
2018-07-16T17:05:37.456Z,52.50
2018-07-16T17:08:06.320Z,52.40
2018-07-16T17:10:35.062Z,52.30
2018-07-16T17:13:03.801Z,52.20
2018-07-16T17:15:32.469Z,52.10
2018-07-16T17:18:01.693Z,52.10
2018-07-16T17:20:30.912Z,52.00
2018-07-16T17:23:00.229Z,51.90
2018-07-16T17:25:30.654Z,51.80
2018-07-16T17:27:59.541Z,51.70
2018-07-16T17:30:29.080Z,51.70
2018-07-16T17:32:58.176Z,51.60
2018-07-16T17:35:27.245Z,51.50
2018-07-16T17:37:56.602Z,51.50
2018-07-16T17:40:25.515Z,51.40
2018-07-16T17:42:55.059Z,51.30
2018-07-16T17:45:24.442Z,51.30
2018-07-16T17:47:53.646Z,51.20
2018-07-16T17:50:23.027Z,51.10
2018-07-16T17:52:52.314Z,51.10
2018-07-16T17:55:21.180Z,51.00
2018-07-16T17:57:51.704Z,51.00
2018-07-16T18:00:20.991Z,50.90
2018-07-16T18:02:50.175Z,50.80
2018-07-16T18:05:19.531Z,50.70
2018-07-16T18:09:13.413Z,50.70
2018-07-16T18:11:43.839Z,50.60
2018-07-16T18:16:42.071Z,50.60
2018-07-16T18:19:12.668Z,50.50
2018-07-16T18:21:42.143Z,50.50
2018-07-16T18:24:11.128Z,50.50
2018-07-16T18:26:40.012Z,50.40
2018-07-16T18:29:08.517Z,50.30
2018-07-16T18:31:37.404Z,50.30
2018-07-16T18:34:06.916Z,50.20
2018-07-16T18:36:36.477Z,50.20
2018-07-16T18:39:07.866Z,50.10
2018-07-16T18:41:36.989Z,50.10
2018-07-16T18:44:06.158Z,50.00
2018-07-16T18:46:35.326Z,50.00
2018-07-16T18:49:04.946Z,49.90
2018-07-16T18:51:34.454Z,49.90
2018-07-16T18:54:04.023Z,49.80
2018-07-16T18:56:33.156Z,49.80
2018-07-16T18:59:01.923Z,49.70
2018-07-16T19:01:31.156Z,49.70
2018-07-16T19:04:00.994Z,49.70
2018-07-16T19:06:30.229Z,49.60
2018-07-16T19:08:58.894Z,49.60
2018-07-16T19:11:28.157Z,49.60
2018-07-16T19:13:56.860Z,49.50
2018-07-16T19:16:27.420Z,49.50
2018-07-16T19:18:56.401Z,49.50
2018-07-16T19:21:25.332Z,49.40
2018-07-16T19:23:54.390Z,49.40
2018-07-16T19:26:23.648Z,49.30
2018-07-16T19:28:53.060Z,49.30
2018-07-16T19:31:21.986Z,49.30
2018-07-16T19:33:50.685Z,49.30
2018-07-16T19:36:20.455Z,49.30
2018-07-16T19:38:49.552Z,49.20
2018-07-16T19:41:18.475Z,49.20
2018-07-16T19:43:47.611Z,49.20
2018-07-16T19:46:16.905Z,49.10
2018-07-16T19:48:46.061Z,49.10
2018-07-16T19:51:15.627Z,49.10
2018-07-16T19:53:44.617Z,49.10
2018-07-16T19:56:14.331Z,49.00
2018-07-16T19:58:43.638Z,49.00
2018-07-16T20:01:14.099Z,48.90
2018-07-16T20:06:11.911Z,49.00
2018-07-16T20:08:41.233Z,48.90
2018-07-16T20:11:09.958Z,48.90
2018-07-16T20:13:38.805Z,48.90
2018-07-16T20:16:08.872Z,48.90
2018-07-16T20:18:37.976Z,48.80
2018-07-16T20:23:36.162Z,48.80
2018-07-16T20:26:05.678Z,48.80
2018-07-16T20:28:34.867Z,48.80
2018-07-16T20:31:04.013Z,48.80
2018-07-16T20:33:32.954Z,48.80
2018-07-16T20:36:02.329Z,48.70
2018-07-16T20:38:31.244Z,48.70
2018-07-16T20:41:00.597Z,48.70
2018-07-16T20:43:29.334Z,48.70
2018-07-16T20:45:57.875Z,48.70
2018-07-16T20:48:27.015Z,48.70
2018-07-16T20:50:55.721Z,48.80
2018-07-16T20:53:24.697Z,48.80
2018-07-16T20:55:53.563Z,48.70
2018-07-16T20:58:22.397Z,49.30
2018-07-16T21:00:51.636Z,49.30
2018-07-16T21:03:22.340Z,48.70
2018-07-16T21:05:51.383Z,48.80
2018-07-16T21:08:20.616Z,48.80
2018-07-16T21:10:50.384Z,48.70
2018-07-16T21:13:19.342Z,48.70
2018-07-16T21:15:50.588Z,48.70
2018-07-16T21:18:19.593Z,48.70
2018-07-16T21:20:49.098Z,48.70
2018-07-16T21:23:18.159Z,48.70
2018-07-16T21:25:47.352Z,48.70
2018-07-16T21:28:16.051Z,48.70
2018-07-16T21:30:46.153Z,48.70
2018-07-16T21:33:15.914Z,48.70
2018-07-16T21:35:44.746Z,48.70
2018-07-16T21:38:13.788Z,48.60
2018-07-16T21:40:43.240Z,48.70
2018-07-16T21:43:12.381Z,48.70
2018-07-16T21:45:41.490Z,48.70
2018-07-16T21:48:10.622Z,48.80
2018-07-16T21:50:40.158Z,48.80
2018-07-16T21:53:09.445Z,48.70
2018-07-16T21:55:38.476Z,48.80
2018-07-16T21:58:08.017Z,48.70
2018-07-16T22:00:37.222Z,48.70
2018-07-16T22:03:06.388Z,48.80
2018-07-16T22:05:35.241Z,49.00
2018-07-16T22:08:06.174Z,49.10
2018-07-16T22:10:34.983Z,49.00
2018-07-16T22:13:04.331Z,49.10
2018-07-16T22:15:33.070Z,49.10
2018-07-16T22:20:31.120Z,49.20
2018-07-16T22:23:01.384Z,49.30
2018-07-16T22:25:30.588Z,49.30
2018-07-16T22:27:59.143Z,49.10
2018-07-16T22:30:27.910Z,49.00
2018-07-16T22:32:57.310Z,49.10
2018-07-16T22:35:27.605Z,49.00
2018-07-16T22:39:21.739Z,49.00
2018-07-16T22:41:50.823Z,49.00
2018-07-16T22:44:19.659Z,49.00
2018-07-16T22:46:48.998Z,49.10
2018-07-16T22:49:18.257Z,49.20
2018-07-16T22:51:47.394Z,49.20
2018-07-16T22:54:16.531Z,49.20
2018-07-16T22:56:45.813Z,49.30
2018-07-16T22:59:15.029Z,49.20
2018-07-16T23:01:43.852Z,49.10
2018-07-16T23:04:12.887Z,49.10
2018-07-16T23:06:42.194Z,49.10
2018-07-16T23:09:11.232Z,49.00
2018-07-16T23:11:40.385Z,49.00
2018-07-16T23:14:09.445Z,49.00
2018-07-16T23:16:38.513Z,48.90
2018-07-16T23:19:07.666Z,48.90
2018-07-16T23:21:37.054Z,48.90
2018-07-16T23:24:06.748Z,48.90
2018-07-16T23:26:35.249Z,49.00
2018-07-16T23:29:03.878Z,48.90
2018-07-16T23:31:34.708Z,48.90
2018-07-16T23:34:03.897Z,49.00
2018-07-16T23:39:02.752Z,49.00
2018-07-16T23:41:31.785Z,49.00
2018-07-16T23:44:00.924Z,49.00
2018-07-16T23:46:30.275Z,49.00
2018-07-16T23:48:59.389Z,49.00
2018-07-16T23:51:28.761Z,48.90
2018-07-16T23:53:57.761Z,48.90
2018-07-16T23:56:26.608Z,48.90
2018-07-16T23:58:57.521Z,48.90
